createdAt,value
2023-03-13T00:01:42.464Z,97915.80
2023-03-13T00:04:10.794Z,97914.83
2023-03-13T00:06:40.451Z,97916.31
2023-03-13T00:09:11.622Z,97921.70
2023-03-13T00:11:40.046Z,97926.24
2023-03-13T00:14:08.711Z,97926.67
2023-03-13T00:16:40.216Z,97933.80
2023-03-13T00:19:09.537Z,97937.85
2023-03-13T00:21:41.611Z,97938.59
2023-03-13T00:24:11.483Z,97943.85
2023-03-13T00:26:39.659Z,97955.78
2023-03-13T00:29:07.993Z,97965.66
2023-03-13T00:31:36.434Z,97970.40
2023-03-13T00:34:05.358Z,97962.79
2023-03-13T00:36:35.494Z,97954.20
2023-03-13T00:39:05.910Z,97955.48
2023-03-13T00:41:37.493Z,97955.58
2023-03-13T00:44:06.929Z,97949.17
2023-03-13T00:46:35.913Z,97944.88
2023-03-13T00:49:04.721Z,97943.64
2023-03-13T00:51:35.915Z,97948.14
2023-03-13T00:54:05.121Z,97949.39
2023-03-13T00:56:34.813Z,97952.95
2023-03-13T00:59:03.476Z,97952.88
2023-03-13T01:01:35.371Z,97944.10
2023-03-13T01:04:11.925Z,97941.33
2023-03-13T01:06:43.302Z,97939.86
2023-03-13T01:09:17.441Z,97939.30
2023-03-13T01:11:47.024Z,97943.81
2023-03-13T01:14:17.970Z,97950.07
2023-03-13T01:16:46.651Z,97945.45
2023-03-13T01:19:16.524Z,97938.34
2023-03-13T01:21:46.947Z,97931.39
2023-03-13T01:24:15.450Z,97930.58
2023-03-13T01:26:45.127Z,97933.68
2023-03-13T01:29:14.131Z,97935.25
2023-03-13T01:31:42.630Z,97943.85
2023-03-13T01:34:11.890Z,97936.55
2023-03-13T01:36:40.219Z,97935.43
2023-03-13T01:39:08.637Z,97935.52
2023-03-13T01:41:37.731Z,97943.30
2023-03-13T01:44:06.075Z,97944.88
2023-03-13T01:46:37.062Z,97951.23
2023-03-13T01:49:25.326Z,97956.75
2023-03-13T01:52:08.853Z,97960.94
2023-03-13T01:54:44.988Z,97961.35
2023-03-13T01:57:24.667Z,97958.23
2023-03-13T02:00:02.140Z,97950.84
2023-03-13T02:02:44.901Z,97956.09
2023-03-13T02:05:15.293Z,97959.30
2023-03-13T02:07:51.034Z,97963.21
2023-03-13T02:10:22.329Z,97970.06
2023-03-13T02:12:52.211Z,97978.00
2023-03-13T02:15:22.962Z,97983.55
2023-03-13T02:17:51.831Z,97985.70
2023-03-13T02:20:22.458Z,97980.86
2023-03-13T02:23:10.825Z,97983.58
2023-03-13T02:25:44.340Z,97982.25
2023-03-13T02:28:16.529Z,97980.77
2023-03-13T02:30:45.784Z,97987.23
2023-03-13T02:33:15.710Z,97983.39
2023-03-13T02:35:45.836Z,97979.48
2023-03-13T02:38:26.957Z,97978.88
2023-03-13T02:40:57.029Z,97978.88
2023-03-13T02:43:31.222Z,97976.55
2023-03-13T02:46:09.886Z,97970.82
2023-03-13T02:48:47.512Z,97968.33
2023-03-13T02:51:39.328Z,97965.34
2023-03-13T02:54:14.584Z,97966.09
2023-03-13T02:56:48.414Z,97969.35
2023-03-13T02:59:17.398Z,97968.89
2023-03-13T03:01:46.382Z,97971.00
2023-03-13T03:04:14.538Z,97979.69
2023-03-13T03:06:42.608Z,97982.70
2023-03-13T03:09:11.049Z,97980.30
2023-03-13T03:11:39.542Z,97978.65
2023-03-13T03:14:11.977Z,97977.23
2023-03-13T03:16:43.638Z,97979.02
2023-03-13T03:19:11.962Z,97976.83
2023-03-13T03:21:40.296Z,97978.34
2023-03-13T03:24:08.925Z,97981.45
2023-03-13T03:26:37.809Z,97987.33
2023-03-13T03:29:11.244Z,97992.42
2023-03-13T03:31:40.234Z,97996.42
2023-03-13T03:34:08.537Z,97994.20
2023-03-13T03:36:37.046Z,98000.52
2023-03-13T03:39:05.522Z,98002.74
2023-03-13T03:41:34.014Z,98003.04
2023-03-13T03:44:02.381Z,98004.96
2023-03-13T03:46:38.042Z,97993.81
2023-03-13T03:49:06.222Z,97986.55
2023-03-13T03:51:34.738Z,97986.40
2023-03-13T03:54:03.165Z,97989.57
2023-03-13T03:56:32.177Z,97996.65
2023-03-13T03:59:00.848Z,98005.30
2023-03-13T04:01:39.980Z,98012.19
2023-03-13T04:04:08.309Z,98009.02
2023-03-13T04:06:36.582Z,98013.67
2023-03-13T04:09:06.328Z,98015.41
2023-03-13T04:11:35.992Z,98018.30
2023-03-13T04:14:05.089Z,98020.77
2023-03-13T04:16:33.577Z,98018.95
2023-03-13T04:19:02.226Z,98013.48
2023-03-13T04:21:30.739Z,98015.90
2023-03-13T04:24:06.406Z,98019.36
2023-03-13T04:26:35.720Z,98004.86
2023-03-13T04:29:06.507Z,98001.13
2023-03-13T04:32:01.513Z,98009.78
2023-03-13T04:34:32.472Z,98011.79
2023-03-13T04:37:03.081Z,98005.52
2023-03-13T04:39:41.908Z,98002.23
2023-03-13T04:42:28.884Z,98002.52
2023-03-13T04:45:16.543Z,98003.36
2023-03-13T04:48:01.052Z,98004.25
2023-03-13T04:50:29.146Z,98014.14
2023-03-13T04:53:32.659Z,98020.23
2023-03-13T04:56:41.539Z,98017.76
2023-03-13T04:59:33.712Z,98025.94
2023-03-13T05:02:02.066Z,98026.59
2023-03-13T05:04:53.609Z,98031.30
2023-03-13T05:07:29.581Z,98033.41
2023-03-13T05:10:11.726Z,98039.65
2023-03-13T05:13:05.013Z,98044.80
2023-03-13T05:15:51.276Z,98050.33
2023-03-13T05:18:36.402Z,98056.41
2023-03-13T05:21:27.270Z,98064.16
2023-03-13T05:24:16.029Z,98069.64
2023-03-13T05:26:57.657Z,98063.96
2023-03-13T05:29:44.311Z,98059.79
2023-03-13T05:32:51.283Z,98059.95
2023-03-13T05:35:40.699Z,98045.50
2023-03-13T05:38:31.602Z,98042.05
2023-03-13T05:41:26.372Z,98055.31
2023-03-13T05:44:02.854Z,98057.20
2023-03-13T05:46:37.348Z,98054.41
2023-03-13T05:49:31.753Z,98065.31
2023-03-13T05:52:12.683Z,98064.48
2023-03-13T05:55:09.979Z,98070.80
2023-03-13T05:58:01.169Z,98075.58
2023-03-13T06:00:43.880Z,98076.48
2023-03-13T06:03:32.327Z,98075.72
2023-03-13T06:06:01.056Z,98072.87
2023-03-13T06:08:38.225Z,98070.67
2023-03-13T06:11:06.655Z,98071.75
2023-03-13T06:13:35.741Z,98072.70
2023-03-13T06:16:11.560Z,98076.25
2023-03-13T06:18:46.390Z,98079.17
2023-03-13T06:21:16.040Z,98080.59
2023-03-13T06:23:44.665Z,98072.95
2023-03-13T06:26:13.148Z,98072.88
2023-03-13T06:28:41.750Z,98075.43
2023-03-13T06:31:11.184Z,98070.88
2023-03-13T06:33:39.577Z,98073.73
2023-03-13T06:36:08.481Z,98065.93
2023-03-13T06:38:36.855Z,98058.73
2023-03-13T06:41:05.399Z,98057.38
2023-03-13T06:43:34.339Z,98053.39
2023-03-13T06:46:06.081Z,98051.48
2023-03-13T06:48:35.087Z,98058.38
2023-03-13T06:51:03.643Z,98063.94
2023-03-13T06:53:32.250Z,98065.91
2023-03-13T06:56:02.193Z,98068.33
2023-03-13T06:58:32.952Z,98069.64
2023-03-13T07:01:11.189Z,98069.55
2023-03-13T07:03:41.720Z,98061.09
2023-03-13T07:06:12.488Z,98057.52
2023-03-13T07:08:41.454Z,98054.31
2023-03-13T07:11:13.229Z,98050.95
2023-03-13T07:13:42.794Z,98043.27
2023-03-13T07:16:13.745Z,98039.31
2023-03-13T07:18:42.739Z,98041.55
2023-03-13T07:21:12.121Z,98045.14
2023-03-13T07:23:40.686Z,98044.33
2023-03-13T07:26:12.938Z,98050.45
2023-03-13T07:28:42.140Z,98062.84
2023-03-13T07:31:13.176Z,98061.10
2023-03-13T07:33:42.378Z,98055.31
2023-03-13T07:36:12.629Z,98054.10
2023-03-13T07:38:41.542Z,98056.80
2023-03-13T07:41:13.816Z,98062.00
2023-03-13T07:43:42.584Z,98064.34
2023-03-13T07:46:20.417Z,98060.67
2023-03-13T07:48:49.766Z,98056.26
2023-03-13T07:51:42.105Z,98055.20
2023-03-13T07:54:12.292Z,98059.44
2023-03-13T07:56:40.721Z,98055.00
2023-03-13T07:59:09.911Z,98053.72
2023-03-13T08:01:38.650Z,98058.99
2023-03-13T08:04:07.685Z,98061.20
2023-03-13T08:06:36.970Z,98051.94
2023-03-13T08:09:06.560Z,98050.64
2023-03-13T08:11:35.279Z,98050.66
2023-03-13T08:14:03.912Z,98052.71
2023-03-13T08:16:34.800Z,98050.36
2023-03-13T08:19:06.199Z,98046.28
2023-03-13T08:21:37.559Z,98046.02
2023-03-13T08:24:08.460Z,98043.70
2023-03-13T08:26:39.560Z,98042.85
2023-03-13T08:29:11.223Z,98050.40
2023-03-13T08:31:48.270Z,98048.08
2023-03-13T08:34:18.610Z,98045.40
2023-03-13T08:36:47.497Z,98040.92
2023-03-13T08:39:21.049Z,98038.70
2023-03-13T08:41:50.324Z,98040.07
2023-03-13T08:44:23.156Z,98039.21
2023-03-13T08:46:51.574Z,98037.30
2023-03-13T08:49:20.129Z,98035.91
2023-03-13T08:51:48.626Z,98033.45
2023-03-13T08:54:17.076Z,98036.67
2023-03-13T08:56:46.853Z,98042.48
2023-03-13T08:59:18.516Z,98042.85
2023-03-13T09:01:46.939Z,98039.94
2023-03-13T09:04:15.895Z,98040.02
2023-03-13T09:06:44.321Z,98038.02
2023-03-13T09:09:14.522Z,98037.88
2023-03-13T09:11:42.880Z,98042.75
2023-03-13T09:14:11.634Z,98041.32
2023-03-13T09:16:41.078Z,98034.59
2023-03-13T09:19:09.963Z,98034.80
2023-03-13T09:21:38.805Z,98032.59
2023-03-13T09:24:08.717Z,98031.77
2023-03-13T09:26:37.451Z,98032.35
2023-03-13T09:29:05.911Z,98031.86
2023-03-13T09:31:34.877Z,98030.65
2023-03-13T09:34:04.787Z,98022.83
2023-03-13T09:36:33.452Z,98020.39
2023-03-13T09:39:02.770Z,98017.59
2023-03-13T09:41:39.280Z,98012.36
2023-03-13T09:44:10.809Z,98008.50
2023-03-13T09:46:55.043Z,98001.15
2023-03-13T09:49:45.714Z,97993.66
2023-03-13T09:52:22.708Z,97988.79
2023-03-13T09:55:05.070Z,97985.61
2023-03-13T09:57:46.978Z,97983.63
2023-03-13T10:00:27.645Z,97979.20
2023-03-13T10:03:11.286Z,97980.52
2023-03-13T10:06:18.643Z,97974.71
2023-03-13T10:08:47.557Z,97974.33
2023-03-13T10:11:30.187Z,97967.70
2023-03-13T10:14:12.264Z,97958.75
2023-03-13T10:16:56.836Z,97953.65
2023-03-13T10:19:42.812Z,97951.45
2023-03-13T10:22:26.529Z,97947.95
2023-03-13T10:25:10.652Z,97938.12
2023-03-13T10:27:51.926Z,97929.77
2023-03-13T10:30:43.781Z,97923.73
2023-03-13T10:33:12.100Z,97918.29
2023-03-13T10:35:42.787Z,97919.83
2023-03-13T10:38:15.778Z,97922.09
2023-03-13T10:40:44.656Z,97917.73
2023-03-13T10:43:22.482Z,97911.43
2023-03-13T10:45:52.263Z,97905.88
2023-03-13T10:48:23.946Z,97903.34
2023-03-13T10:50:57.556Z,97900.52
2023-03-13T10:53:29.955Z,97900.91
2023-03-13T10:56:20.407Z,97893.98
2023-03-13T10:58:51.393Z,97891.23
2023-03-13T11:01:32.714Z,97885.83
2023-03-13T11:04:39.581Z,97878.57
2023-03-13T11:07:27.424Z,97880.36
2023-03-13T11:10:19.135Z,97871.14
2023-03-13T11:12:53.762Z,97868.64
2023-03-13T11:15:35.611Z,97862.08
2023-03-13T11:18:16.274Z,97856.25
2023-03-13T11:20:47.055Z,97853.70
2023-03-13T11:23:24.799Z,97848.36
2023-03-13T11:26:12.024Z,97848.81
2023-03-13T11:28:54.332Z,97844.69
2023-03-13T11:31:33.630Z,97841.51
2023-03-13T11:34:07.176Z,97837.48
2023-03-13T11:36:39.226Z,97832.62
2023-03-13T11:39:30.905Z,97830.34
2023-03-13T11:42:14.874Z,97829.45
2023-03-13T11:45:08.810Z,97830.63
2023-03-13T11:48:08.398Z,97826.09
2023-03-13T11:51:21.046Z,97827.61
2023-03-13T11:53:58.618Z,97824.32
2023-03-13T11:57:15.400Z,97822.81
2023-03-13T11:59:59.551Z,97818.84
2023-03-13T12:02:34.338Z,97818.11
2023-03-13T12:05:11.632Z,97815.89
2023-03-13T12:07:48.468Z,97816.19
2023-03-13T12:10:41.457Z,97817.40
2023-03-13T12:13:20.332Z,97818.36
2023-03-13T12:15:54.583Z,97817.02
2023-03-13T12:18:36.784Z,97816.73
2023-03-13T12:21:14.657Z,97812.55
2023-03-13T12:24:05.983Z,97810.58
2023-03-13T12:26:51.872Z,97808.23
2023-03-13T12:29:49.395Z,97806.55
2023-03-13T12:32:46.370Z,97800.98
2023-03-13T12:35:29.398Z,97795.00
2023-03-13T12:38:04.028Z,97792.84
2023-03-13T12:40:39.736Z,97789.70
2023-03-13T12:43:18.948Z,97791.98
2023-03-13T12:46:33.458Z,97786.35
2023-03-13T12:49:26.389Z,97786.08
2023-03-13T12:52:32.627Z,97785.59
2023-03-13T12:55:49.550Z,97784.91
2023-03-13T12:58:21.937Z,97781.19
2023-03-13T13:00:51.982Z,97780.31
2023-03-13T13:03:26.010Z,97775.76
2023-03-13T13:06:13.234Z,97772.71
2023-03-13T13:08:44.523Z,97772.10
2023-03-13T13:11:37.862Z,97770.33
2023-03-13T13:14:28.988Z,97765.48
2023-03-13T13:17:01.431Z,97762.21
2023-03-13T13:19:42.588Z,97755.61
2023-03-13T13:22:39.185Z,97749.42
2023-03-13T13:25:10.670Z,97749.45
2023-03-13T13:27:39.256Z,97747.58
2023-03-13T13:30:17.362Z,97746.46
2023-03-13T13:32:50.705Z,97744.77
2023-03-13T13:35:35.058Z,97738.38
2023-03-13T13:38:19.012Z,97730.87
2023-03-13T13:41:11.567Z,97727.17
2023-03-13T13:43:43.604Z,97728.92
2023-03-13T13:46:33.584Z,97729.08
2023-03-13T13:49:06.119Z,97716.73
2023-03-13T13:51:40.059Z,97720.48
2023-03-13T13:54:18.573Z,97718.02
2023-03-13T13:56:52.706Z,97716.04
2023-03-13T13:59:21.444Z,97710.73
2023-03-13T14:02:13.950Z,97712.52
2023-03-13T14:04:48.844Z,97709.61
2023-03-13T14:07:45.100Z,97706.39
2023-03-13T14:10:30.508Z,97700.08
2023-03-13T14:13:01.070Z,97696.73
2023-03-13T14:15:31.853Z,97693.77
2023-03-13T14:18:13.863Z,97693.63
2023-03-13T14:20:54.871Z,97693.65
2023-03-13T14:23:42.791Z,97691.94
2023-03-13T14:26:28.132Z,97692.75
2023-03-13T14:29:03.602Z,97685.66
2023-03-13T14:31:37.891Z,97676.60
2023-03-13T14:34:10.277Z,97674.60
2023-03-13T14:36:52.252Z,97667.89
2023-03-13T14:39:33.392Z,97662.41
2023-03-13T14:42:22.576Z,97655.92
2023-03-13T14:44:54.235Z,97649.08
2023-03-13T14:47:31.032Z,97645.55
2023-03-13T14:50:05.069Z,97647.10
2023-03-13T14:52:35.392Z,97641.85
2023-03-13T14:55:26.198Z,97637.70
2023-03-13T14:58:07.867Z,97635.34
2023-03-13T15:00:39.436Z,97635.27
2023-03-13T15:03:25.831Z,97635.23
2023-03-13T15:06:08.584Z,97640.42
2023-03-13T15:08:43.062Z,97642.89
2023-03-13T15:11:22.400Z,97647.70
2023-03-13T15:13:51.492Z,97649.75
2023-03-13T15:16:22.029Z,97646.40
2023-03-13T15:18:51.926Z,97649.04
2023-03-13T15:21:38.583Z,97649.31
2023-03-13T15:24:15.734Z,97645.27
2023-03-13T15:26:44.794Z,97644.67
2023-03-13T15:29:14.401Z,97645.61
2023-03-13T15:31:43.160Z,97652.66
2023-03-13T15:34:14.695Z,97653.67
2023-03-13T15:36:43.147Z,97654.39
2023-03-13T15:39:19.550Z,97653.27
2023-03-13T15:41:47.898Z,97649.89
2023-03-13T15:44:16.493Z,97648.24
2023-03-13T15:46:46.653Z,97646.79
2023-03-13T15:49:15.333Z,97644.05
2023-03-13T15:51:44.407Z,97636.67
2023-03-13T15:54:13.107Z,97634.02
2023-03-13T15:56:42.527Z,97637.96
2023-03-13T15:59:12.896Z,97631.09
2023-03-13T16:01:43.038Z,97628.40
2023-03-13T16:04:12.251Z,97631.67
2023-03-13T16:06:41.165Z,97633.02
2023-03-13T16:09:12.590Z,97635.55
2023-03-13T16:11:41.485Z,97638.44
2023-03-13T16:14:10.128Z,97640.33
2023-03-13T16:16:39.739Z,97643.96
2023-03-13T16:19:10.760Z,97641.33
2023-03-13T16:21:43.466Z,97643.92
2023-03-13T16:24:11.898Z,97642.84
2023-03-13T16:26:41.061Z,97645.94
2023-03-13T16:29:15.490Z,97649.52
2023-03-13T16:31:43.763Z,97653.31
2023-03-13T16:34:12.513Z,97651.55
2023-03-13T16:36:40.724Z,97652.91
2023-03-13T16:39:17.031Z,97653.73
2023-03-13T16:41:45.601Z,97655.77
2023-03-13T16:44:14.678Z,97654.50
2023-03-13T16:46:59.071Z,97652.52
2023-03-13T16:49:32.838Z,97650.89
2023-03-13T16:52:01.392Z,97650.27
2023-03-13T16:54:29.800Z,97647.74
2023-03-13T16:56:59.315Z,97646.59
2023-03-13T16:59:28.623Z,97645.26
2023-03-13T17:01:56.791Z,97643.92
2023-03-13T17:04:25.239Z,97646.42
2023-03-13T17:06:53.653Z,97650.30
2023-03-13T17:09:22.230Z,97649.51
2023-03-13T17:11:50.513Z,97648.00
2023-03-13T17:14:18.729Z,97650.65
2023-03-13T17:16:47.771Z,97655.90
2023-03-13T17:19:17.262Z,97660.63
2023-03-13T17:21:45.874Z,97661.18
2023-03-13T17:24:14.523Z,97660.70
2023-03-13T17:26:42.763Z,97659.34
2023-03-13T17:29:17.276Z,97656.73
2023-03-13T17:31:46.164Z,97655.54
2023-03-13T17:34:15.705Z,97651.73
2023-03-13T17:36:45.696Z,97650.54
2023-03-13T17:39:15.984Z,97650.73
2023-03-13T17:41:44.161Z,97644.67
2023-03-13T17:44:12.607Z,97645.04
2023-03-13T17:46:44.434Z,97643.14
2023-03-13T17:49:14.755Z,97644.36
2023-03-13T17:51:46.366Z,97640.39
2023-03-13T17:54:16.040Z,97636.77
2023-03-13T17:56:45.862Z,97637.30
2023-03-13T17:59:17.832Z,97638.34
2023-03-13T18:01:46.954Z,97637.29
2023-03-13T18:04:15.558Z,97632.10
2023-03-13T18:06:46.498Z,97631.40
2023-03-13T18:09:21.150Z,97627.95
2023-03-13T18:11:50.246Z,97626.73
2023-03-13T18:14:18.808Z,97621.38
2023-03-13T18:16:50.443Z,97620.85
2023-03-13T18:19:22.697Z,97617.73
2023-03-13T18:21:55.845Z,97620.67
2023-03-13T18:24:25.252Z,97621.20
2023-03-13T18:26:53.597Z,97617.56
2023-03-13T18:29:27.268Z,97614.77
2023-03-13T18:31:58.904Z,97615.13
2023-03-13T18:34:29.004Z,97614.09
2023-03-13T18:37:03.888Z,97615.64
2023-03-13T18:39:33.165Z,97615.46
2023-03-13T18:42:02.328Z,97612.54
2023-03-13T18:44:30.555Z,97611.84
2023-03-13T18:46:58.665Z,97609.76
2023-03-13T18:49:27.285Z,97610.63
2023-03-13T18:51:55.824Z,97609.93
2023-03-13T18:54:23.941Z,97612.69
2023-03-13T18:56:52.412Z,97618.23
2023-03-13T18:59:22.506Z,97619.27
2023-03-13T19:01:51.365Z,97618.08
2023-03-13T19:04:20.335Z,97619.11
2023-03-13T19:06:48.888Z,97618.07
2023-03-13T19:09:42.184Z,97622.04
2023-03-13T19:12:13.162Z,97619.61
2023-03-13T19:14:42.102Z,97619.95
2023-03-13T19:17:20.574Z,97618.40
2023-03-13T19:19:48.892Z,97622.19
2023-03-13T19:22:17.600Z,97623.21
2023-03-13T19:24:46.274Z,97626.51
2023-03-13T19:27:15.025Z,97618.72
2023-03-13T19:29:44.128Z,97617.32
2023-03-13T19:32:14.907Z,97617.14
2023-03-13T19:34:43.690Z,97614.36
2023-03-13T19:37:14.443Z,97609.85
2023-03-13T19:39:43.090Z,97609.15
2023-03-13T19:42:12.094Z,97612.42
2023-03-13T19:44:41.617Z,97609.98
2023-03-13T19:47:15.955Z,97613.44
2023-03-13T19:49:45.845Z,97614.11
2023-03-13T19:52:14.496Z,97610.63
2023-03-13T19:54:42.642Z,97610.45
2023-03-13T19:57:12.331Z,97613.75
2023-03-13T19:59:41.490Z,97615.63
2023-03-13T20:02:11.727Z,97616.29
2023-03-13T20:04:42.768Z,97615.05
2023-03-13T20:07:11.493Z,97610.88
2023-03-13T20:09:39.712Z,97613.67
2023-03-13T20:12:08.129Z,97615.40
2023-03-13T20:14:36.237Z,97614.16
2023-03-13T20:17:04.947Z,97613.44
2023-03-13T20:19:33.846Z,97610.13
2023-03-13T20:22:05.411Z,97605.09
2023-03-13T20:24:33.751Z,97608.71
2023-03-13T20:27:04.368Z,97608.89
2023-03-13T20:29:33.992Z,97604.92
2023-03-13T20:32:04.947Z,97600.44
2023-03-13T20:34:34.651Z,97590.58
2023-03-13T20:37:04.061Z,97585.73
2023-03-13T20:39:34.282Z,97589.54
2023-03-13T20:42:03.428Z,97589.54
2023-03-13T20:44:31.856Z,97590.22
2023-03-13T20:47:00.606Z,97590.56
2023-03-13T20:49:29.230Z,97590.89
2023-03-13T20:51:57.550Z,97588.31
2023-03-13T20:54:26.050Z,97584.16
2023-03-13T20:56:55.101Z,97583.80
2023-03-13T20:59:23.346Z,97582.09
2023-03-13T21:01:51.631Z,97583.81
2023-03-13T21:04:19.933Z,97587.27
2023-03-13T21:06:50.250Z,97586.59
2023-03-13T21:09:18.610Z,97586.95
2023-03-13T21:11:46.975Z,97589.55
2023-03-13T21:14:15.388Z,97587.84
2023-03-13T21:16:43.489Z,97584.40
2023-03-13T21:19:11.597Z,97583.36
2023-03-13T21:21:40.330Z,97576.46
2023-03-13T21:24:08.823Z,97574.40
2023-03-13T21:26:37.677Z,97571.31
2023-03-13T21:29:06.517Z,97567.86
2023-03-13T21:31:36.089Z,97562.69
2023-03-13T21:34:05.721Z,97560.61
2023-03-13T21:36:34.180Z,97560.10
2023-03-13T21:39:02.953Z,97556.30
2023-03-13T21:41:33.668Z,97552.66
2023-03-13T21:44:03.094Z,97546.09
2023-03-13T21:46:33.399Z,97537.79
2023-03-13T21:49:02.507Z,97531.23
2023-03-13T21:51:30.680Z,97528.79
2023-03-13T21:53:58.678Z,97523.94
2023-03-13T21:56:26.777Z,97517.54
2023-03-13T21:58:54.976Z,97514.41
2023-03-13T22:01:22.948Z,97509.55
2023-03-13T22:03:51.046Z,97501.76
2023-03-13T22:06:22.701Z,97498.10
2023-03-13T22:08:51.841Z,97496.70
2023-03-13T22:11:20.012Z,97500.81
2023-03-13T22:13:48.104Z,97503.20
2023-03-13T22:16:16.097Z,97498.33
2023-03-13T22:18:44.212Z,97494.70
2023-03-13T22:21:12.400Z,97490.01
2023-03-13T22:23:40.547Z,97484.46
2023-03-13T22:26:11.373Z,97480.47
2023-03-13T22:28:40.184Z,97477.34
2023-03-13T22:31:11.264Z,97481.14
2023-03-13T22:33:39.304Z,97483.02
2023-03-13T22:36:09.232Z,97476.96
2023-03-13T22:38:39.168Z,97466.60
2023-03-13T22:41:11.845Z,97469.52
2023-03-13T22:43:40.121Z,97471.21
2023-03-13T22:46:09.370Z,97472.23
2023-03-13T22:48:37.762Z,97468.23
2023-03-13T22:51:14.445Z,97466.84
2023-03-13T22:53:43.147Z,97461.98
2023-03-13T22:56:12.521Z,97455.61
2023-03-13T22:58:41.879Z,97455.45
2023-03-13T23:01:12.853Z,97455.11
2023-03-13T23:03:41.600Z,97450.27
2023-03-13T23:06:15.755Z,97446.30
2023-03-13T23:08:44.650Z,97443.17
2023-03-13T23:11:13.086Z,97440.23
2023-03-13T23:13:41.202Z,97435.20
2023-03-13T23:16:11.993Z,97427.94
2023-03-13T23:18:41.936Z,97423.80
2023-03-13T23:21:13.465Z,97426.90
2023-03-13T23:23:42.068Z,97422.40
2023-03-13T23:26:13.203Z,97420.15
2023-03-13T23:28:41.399Z,97418.76
2023-03-13T23:31:14.981Z,97420.69
2023-03-13T23:33:43.074Z,97416.58
2023-03-13T23:36:13.945Z,97412.79
2023-03-13T23:38:42.685Z,97413.83
2023-03-13T23:41:13.361Z,97417.42
2023-03-13T23:43:41.707Z,97420.67
2023-03-13T23:46:19.087Z,97421.00
2023-03-13T23:48:47.411Z,97415.61
2023-03-13T23:51:15.546Z,97407.11
2023-03-13T23:53:44.331Z,97408.27
2023-03-13T23:56:12.618Z,97412.89
2023-03-13T23:58:41.668Z,97411.82
